createdAt,value
2018-12-29T00:01:06.028Z,10.90
2018-12-29T00:03:34.449Z,10.50
2018-12-29T00:06:02.869Z,9.95
2018-12-29T00:08:31.285Z,11.50
2018-12-29T00:10:59.692Z,12.23
2018-12-29T00:13:28.113Z,11.48
2018-12-29T00:15:56.537Z,9.75
2018-12-29T00:18:25.184Z,13.85
2018-12-29T00:20:53.595Z,10.82
2018-12-29T00:23:22.354Z,8.80
2018-12-29T00:25:50.765Z,10.75
2018-12-29T00:28:19.189Z,8.73
2018-12-29T00:30:47.597Z,12.45
2018-12-29T00:33:16.291Z,15.65
2018-12-29T00:35:45.022Z,16.42
2018-12-29T00:38:13.481Z,13.25
2018-12-29T00:40:42.236Z,8.70
2018-12-29T00:43:10.885Z,12.03
2018-12-29T00:45:39.305Z,10.43
2018-12-29T00:48:07.720Z,13.60
2018-12-29T00:50:36.154Z,15.88
2018-12-29T00:53:04.783Z,11.00
2018-12-29T00:55:33.249Z,16.75
2018-12-29T00:58:01.903Z,10.65
2018-12-29T01:00:30.325Z,13.18
2018-12-29T01:02:58.735Z,10.78
2018-12-29T01:05:27.410Z,12.70
2018-12-29T01:07:56.079Z,10.48
2018-12-29T01:10:24.534Z,8.95
2018-12-29T01:12:52.958Z,12.65
2018-12-29T01:15:21.597Z,10.98
2018-12-29T01:17:50.054Z,12.00
2018-12-29T01:20:18.747Z,13.78
2018-12-29T01:22:47.503Z,11.80
2018-12-29T01:25:16.180Z,14.05
2018-12-29T01:27:44.593Z,10.45
2018-12-29T01:30:13.023Z,25.15
2018-12-29T01:32:41.450Z,17.90
2018-12-29T01:35:10.122Z,15.32
2018-12-29T01:37:38.822Z,15.45
2018-12-29T01:40:07.668Z,11.80
2018-12-29T01:42:36.117Z,16.00
2018-12-29T01:45:05.572Z,11.53
2018-12-29T01:47:33.981Z,15.00
2018-12-29T01:50:02.391Z,10.60
2018-12-29T01:52:30.817Z,13.40
2018-12-29T01:54:59.493Z,10.32
2018-12-29T01:57:27.950Z,8.83
2018-12-29T01:59:56.365Z,15.55
2018-12-29T02:02:24.784Z,12.00
2018-12-29T02:04:53.206Z,10.10
2018-12-29T02:07:21.625Z,12.50
2018-12-29T02:09:50.289Z,18.75
2018-12-29T02:12:18.709Z,19.90
2018-12-29T02:14:47.366Z,18.37
2018-12-29T02:17:15.786Z,12.03
2018-12-29T02:19:44.615Z,22.62
2018-12-29T02:22:13.073Z,18.95
2018-12-29T02:24:41.490Z,19.82
2018-12-29T02:27:09.914Z,27.52
2018-12-29T02:29:38.329Z,16.40
2018-12-29T02:32:06.749Z,18.98
2018-12-29T02:34:35.414Z,25.65
2018-12-29T02:37:03.833Z,17.87
2018-12-29T02:39:32.494Z,16.85
2018-12-29T02:42:01.127Z,22.65
2018-12-29T02:44:29.578Z,23.65
2018-12-29T02:46:58.242Z,23.83
2018-12-29T02:49:26.919Z,27.82
2018-12-29T02:51:55.339Z,31.07
2018-12-29T02:54:23.750Z,27.55
2018-12-29T02:56:52.173Z,28.42
2018-12-29T02:59:20.847Z,27.02
2018-12-29T03:01:49.258Z,26.37
2018-12-29T03:04:17.894Z,27.65
2018-12-29T03:06:46.714Z,31.17
2018-12-29T03:09:15.491Z,31.57
2018-12-29T03:11:44.183Z,27.98
2018-12-29T03:14:12.602Z,38.15
2018-12-29T03:16:41.013Z,40.40
2018-12-29T03:19:09.447Z,45.12
2018-12-29T03:21:37.857Z,38.65
2018-12-29T03:24:06.291Z,32.00
2018-12-29T03:26:34.929Z,37.78
2018-12-29T03:29:03.396Z,34.35
2018-12-29T03:31:32.139Z,30.55
2018-12-29T03:34:00.792Z,24.25
2018-12-29T03:36:29.241Z,24.35
2018-12-29T03:38:57.905Z,23.87
2018-12-29T03:41:26.387Z,30.70
2018-12-29T03:43:54.809Z,27.30
2018-12-29T03:46:23.238Z,30.52
2018-12-29T03:48:51.661Z,24.65
2018-12-29T03:51:20.079Z,21.00
2018-12-29T03:53:48.727Z,25.80
2018-12-29T03:56:17.411Z,24.57
2018-12-29T03:58:45.878Z,40.35
2018-12-29T04:01:14.295Z,25.55
2018-12-29T04:03:42.983Z,26.30
2018-12-29T04:06:11.799Z,25.70
2018-12-29T04:08:40.204Z,26.45
2018-12-29T04:11:08.651Z,26.10
2018-12-29T04:13:37.190Z,22.50
2018-12-29T04:16:05.847Z,21.17
2018-12-29T04:18:34.303Z,22.50
2018-12-29T04:21:03.026Z,24.92
2018-12-29T04:23:31.478Z,25.05
2018-12-29T04:25:59.901Z,18.82
2018-12-29T04:28:28.325Z,23.45
2018-12-29T04:30:56.744Z,20.25
2018-12-29T04:33:25.155Z,23.62
2018-12-29T04:35:53.578Z,29.15
2018-12-29T04:38:22.012Z,25.00
2018-12-29T04:40:50.431Z,22.70
2018-12-29T04:43:18.841Z,21.48
2018-12-29T04:45:47.348Z,19.80
2018-12-29T04:48:15.767Z,24.07
2018-12-29T04:50:44.190Z,22.80
2018-12-29T04:53:12.614Z,23.90
2018-12-29T04:55:41.037Z,22.37
2018-12-29T04:58:09.711Z,18.10
2018-12-29T05:00:38.126Z,21.42
2018-12-29T05:03:06.787Z,25.40
2018-12-29T05:05:35.206Z,23.02
2018-12-29T05:08:03.629Z,26.60
2018-12-29T05:10:32.041Z,31.73
2018-12-29T05:13:00.715Z,22.48
2018-12-29T05:15:29.134Z,24.98
2018-12-29T05:17:57.803Z,27.20
2018-12-29T05:20:26.223Z,20.12
2018-12-29T05:22:54.645Z,29.57
2018-12-29T05:25:23.074Z,22.73
2018-12-29T05:27:51.498Z,24.92
2018-12-29T05:30:20.188Z,20.88
2018-12-29T05:32:48.829Z,26.73
2018-12-29T05:35:17.281Z,24.20
2018-12-29T05:37:45.710Z,22.50
2018-12-29T05:40:14.126Z,30.85
2018-12-29T05:42:42.810Z,28.92
2018-12-29T05:45:11.288Z,19.40
2018-12-29T05:47:39.710Z,23.95
2018-12-29T05:50:08.126Z,23.90
2018-12-29T05:52:36.562Z,28.85
2018-12-29T05:55:05.214Z,28.23
2018-12-29T05:57:33.678Z,23.27
2018-12-29T06:00:02.102Z,22.35
2018-12-29T06:02:30.531Z,23.22
2018-12-29T06:04:59.195Z,22.02
2018-12-29T06:07:27.626Z,27.67
2018-12-29T06:09:56.051Z,23.75
2018-12-29T06:12:24.479Z,29.57
2018-12-29T06:14:52.893Z,31.70
2018-12-29T06:17:21.320Z,28.95
2018-12-29T06:19:49.735Z,30.55
2018-12-29T06:22:18.429Z,31.37
2018-12-29T06:24:46.829Z,28.83
2018-12-29T06:27:15.262Z,32.13
2018-12-29T06:29:44.054Z,33.88
2018-12-29T06:32:12.501Z,27.22
2018-12-29T06:34:40.914Z,25.27
2018-12-29T06:37:09.357Z,27.67
2018-12-29T06:39:37.773Z,29.25
2018-12-29T06:42:06.189Z,29.65
2018-12-29T06:44:34.625Z,33.53
2018-12-29T06:47:03.765Z,37.05
2018-12-29T06:49:32.185Z,24.72
2018-12-29T06:52:00.599Z,28.32
2018-12-29T06:54:29.273Z,22.80
2018-12-29T06:56:57.735Z,27.20
2018-12-29T06:59:26.166Z,31.10
2018-12-29T07:01:54.580Z,27.35
2018-12-29T07:04:22.997Z,28.25
2018-12-29T07:06:51.419Z,26.52
2018-12-29T07:09:20.198Z,33.63
2018-12-29T07:11:48.614Z,23.87
2018-12-29T07:14:17.323Z,31.10
2018-12-29T07:16:45.782Z,30.80
2018-12-29T07:19:14.210Z,27.37
2018-12-29T07:21:42.631Z,28.90
2018-12-29T07:24:11.271Z,34.30
2018-12-29T07:26:39.737Z,26.95
2018-12-29T07:29:08.153Z,31.05
2018-12-29T07:31:36.821Z,25.65
2018-12-29T07:34:05.250Z,26.30
2018-12-29T07:36:33.665Z,26.65
2018-12-29T07:39:02.093Z,26.15
2018-12-29T07:41:30.507Z,28.05
2018-12-29T07:43:58.937Z,29.63
2018-12-29T07:46:27.356Z,35.55
2018-12-29T07:48:55.790Z,29.52
2018-12-29T07:51:24.547Z,26.95
2018-12-29T07:53:53.023Z,34.55
2018-12-29T07:56:21.438Z,25.55
2018-12-29T07:58:49.871Z,31.12
2018-12-29T08:01:18.361Z,29.25
2018-12-29T08:03:46.806Z,35.25
2018-12-29T08:06:15.238Z,35.30
2018-12-29T08:08:43.888Z,29.95
2018-12-29T08:11:12.634Z,33.23
2018-12-29T08:13:41.070Z,37.70
2018-12-29T08:16:09.573Z,31.27
2018-12-29T08:18:38.238Z,33.35
2018-12-29T08:21:06.705Z,29.48
2018-12-29T08:23:35.128Z,27.50
2018-12-29T08:26:03.559Z,38.30
2018-12-29T08:28:31.971Z,29.77
2018-12-29T08:31:00.408Z,27.75
2018-12-29T08:33:29.125Z,27.82
2018-12-29T08:35:57.589Z,30.50
2018-12-29T08:38:26.057Z,24.02
2018-12-29T08:40:54.526Z,21.48
2018-12-29T08:43:22.953Z,29.23
2018-12-29T08:45:51.384Z,27.67
2018-12-29T08:48:20.022Z,31.02
2018-12-29T08:50:48.697Z,31.87
2018-12-29T08:53:17.158Z,31.57
2018-12-29T08:55:45.820Z,29.30
2018-12-29T08:58:14.285Z,26.35
2018-12-29T09:00:42.709Z,27.77
2018-12-29T09:03:11.143Z,26.55
2018-12-29T09:05:39.643Z,26.33
2018-12-29T09:08:08.363Z,26.55
2018-12-29T09:10:36.903Z,21.15
2018-12-29T09:13:05.691Z,25.55
2018-12-29T09:15:34.131Z,24.30
2018-12-29T09:18:02.615Z,24.70
2018-12-29T09:20:31.047Z,26.90
2018-12-29T09:22:59.705Z,22.07
2018-12-29T09:25:28.146Z,18.80
2018-12-29T09:27:56.585Z,24.00
2018-12-29T09:30:25.039Z,20.20
2018-12-29T09:32:53.476Z,21.50
2018-12-29T09:35:21.950Z,25.10
2018-12-29T09:37:50.391Z,21.10
2018-12-29T09:40:18.810Z,23.12
2018-12-29T09:42:47.528Z,21.30
2018-12-29T09:45:16.305Z,23.38
2018-12-29T09:47:44.788Z,19.52
2018-12-29T09:50:13.214Z,22.85
2018-12-29T09:52:41.646Z,20.52
2018-12-29T09:55:10.073Z,22.20
2018-12-29T09:57:38.506Z,25.68
2018-12-29T10:00:08.270Z,21.17
2018-12-29T10:02:36.963Z,20.80
2018-12-29T10:05:05.611Z,24.63
2018-12-29T10:07:34.084Z,20.25
2018-12-29T10:10:02.511Z,21.75
2018-12-29T10:12:30.954Z,26.35
2018-12-29T10:14:59.619Z,28.80
2018-12-29T10:17:28.787Z,21.97
2018-12-29T10:19:57.374Z,24.90
2018-12-29T10:22:26.068Z,23.00
2018-12-29T10:24:54.491Z,22.25
2018-12-29T10:27:23.168Z,20.88
2018-12-29T10:29:51.596Z,23.00
2018-12-29T10:32:20.033Z,23.10
2018-12-29T10:34:48.458Z,20.43
2018-12-29T10:37:16.893Z,22.48
2018-12-29T10:39:45.643Z,21.68
2018-12-29T10:42:14.119Z,20.48
2018-12-29T10:44:42.559Z,21.85
2018-12-29T10:47:11.004Z,19.57
2018-12-29T10:49:39.434Z,27.48
2018-12-29T10:52:07.885Z,21.05
2018-12-29T10:54:36.621Z,21.15
2018-12-29T10:57:05.107Z,24.98
2018-12-29T10:59:33.530Z,20.57
2018-12-29T11:02:01.974Z,24.98
2018-12-29T11:04:30.390Z,21.83
2018-12-29T11:06:59.075Z,24.15
2018-12-29T11:09:27.554Z,20.17
2018-12-29T11:11:56.058Z,25.77
2018-12-29T11:14:24.502Z,24.65
2018-12-29T11:16:52.931Z,26.20
2018-12-29T11:19:21.375Z,21.05
2018-12-29T11:21:50.038Z,21.60
2018-12-29T11:24:18.511Z,21.73
2018-12-29T11:26:46.940Z,29.92
2018-12-29T11:29:15.373Z,23.05
2018-12-29T11:31:43.803Z,17.25
2018-12-29T11:34:12.238Z,25.37
2018-12-29T11:36:40.666Z,22.95
2018-12-29T11:39:09.111Z,24.30
2018-12-29T11:41:37.544Z,24.23
2018-12-29T11:44:05.974Z,22.62
2018-12-29T11:46:34.626Z,18.65
2018-12-29T11:49:03.111Z,24.37
2018-12-29T11:51:31.799Z,21.90
2018-12-29T11:54:00.314Z,27.07
2018-12-29T11:56:28.743Z,22.15
2018-12-29T11:58:57.178Z,21.80
2018-12-29T12:01:25.826Z,19.00
2018-12-29T12:03:54.304Z,21.10
2018-12-29T12:06:22.726Z,17.00
2018-12-29T12:08:51.382Z,22.07
2018-12-29T12:11:19.855Z,19.07
2018-12-29T12:13:48.514Z,20.68
2018-12-29T12:16:16.987Z,21.42
2018-12-29T12:18:45.427Z,22.20
2018-12-29T12:21:14.069Z,18.15
2018-12-29T12:23:42.567Z,16.00
2018-12-29T12:26:10.994Z,23.20
2018-12-29T12:28:39.638Z,20.90
2018-12-29T12:31:08.079Z,17.80
2018-12-29T12:33:36.498Z,22.90
2018-12-29T12:36:05.145Z,20.30
2018-12-29T12:38:33.614Z,20.30
2018-12-29T12:41:02.046Z,18.07
2018-12-29T12:43:30.474Z,18.57
2018-12-29T12:45:59.609Z,19.35
2018-12-29T12:48:28.074Z,16.75
2018-12-29T12:50:57.056Z,19.98
2018-12-29T12:53:25.742Z,23.10
2018-12-29T12:55:54.239Z,21.52
2018-12-29T12:58:22.960Z,24.35
2018-12-29T13:00:51.759Z,21.10
2018-12-29T13:03:20.567Z,19.60
2018-12-29T13:05:49.414Z,23.37
2018-12-29T13:08:17.875Z,20.87
2018-12-29T13:10:46.314Z,24.43
2018-12-29T13:13:14.738Z,22.43
2018-12-29T13:15:43.212Z,22.67
2018-12-29T13:18:13.207Z,25.07
2018-12-29T13:20:41.740Z,18.83
2018-12-29T13:23:10.353Z,24.73
2018-12-29T13:25:38.773Z,22.97
2018-12-29T13:28:07.203Z,21.67
2018-12-29T13:30:36.121Z,19.80
2018-12-29T13:33:04.586Z,25.23
2018-12-29T13:35:33.028Z,16.70
2018-12-29T13:38:01.670Z,17.93
2018-12-29T13:40:30.161Z,26.30
2018-12-29T13:42:59.105Z,23.20
2018-12-29T13:45:27.590Z,24.60
2018-12-29T13:47:56.064Z,19.83
2018-12-29T13:50:24.722Z,24.20
2018-12-29T13:52:53.199Z,24.43
2018-12-29T13:55:22.156Z,24.07
2018-12-29T13:57:50.574Z,19.27
2018-12-29T14:00:19.286Z,19.00
2018-12-29T14:02:47.723Z,21.07
2018-12-29T14:05:16.162Z,20.20
2018-12-29T14:07:44.586Z,20.77
2018-12-29T14:10:13.226Z,21.80
2018-12-29T14:12:41.706Z,24.00
2018-12-29T14:15:10.133Z,26.47
2018-12-29T14:17:38.654Z,22.40
2018-12-29T14:20:07.233Z,26.23
2018-12-29T14:22:35.741Z,24.50
2018-12-29T14:25:04.243Z,23.50
2018-12-29T14:27:32.690Z,28.50
2018-12-29T14:30:01.337Z,21.65
2018-12-29T14:32:49.158Z,24.18
2018-12-29T14:35:17.857Z,24.57
2018-12-29T14:37:46.334Z,23.85
2018-12-29T14:40:15.038Z,21.45
2018-12-29T14:42:43.498Z,24.47
2018-12-29T14:45:11.930Z,24.63
2018-12-29T14:47:40.510Z,22.33
2018-12-29T14:50:09.052Z,15.35
2018-12-29T14:52:38.300Z,23.12
2018-12-29T14:55:06.768Z,23.73
2018-12-29T14:57:35.216Z,18.80
2018-12-29T15:00:04.356Z,16.32
2018-12-29T15:02:33.144Z,21.35
2018-12-29T15:05:02.091Z,20.70
2018-12-29T15:07:30.572Z,23.55
2018-12-29T15:09:59.212Z,20.37
2018-12-29T15:12:27.686Z,25.62
2018-12-29T15:14:56.741Z,21.12
2018-12-29T15:17:25.245Z,25.92
2018-12-29T15:19:53.682Z,18.48
2018-12-29T15:22:22.187Z,22.05
2018-12-29T15:24:50.998Z,21.77
2018-12-29T15:27:19.501Z,23.07
2018-12-29T15:29:48.036Z,20.35
2018-12-29T15:32:16.744Z,17.87
2018-12-29T15:34:45.465Z,20.00
2018-12-29T15:37:13.939Z,18.90
2018-12-29T15:39:42.443Z,20.57
2018-12-29T15:42:10.880Z,21.37
2018-12-29T15:44:39.546Z,16.32
2018-12-29T15:47:08.387Z,21.85
2018-12-29T15:49:37.252Z,18.62
2018-12-29T15:52:05.717Z,23.32
2018-12-29T15:54:34.532Z,22.65
2018-12-29T15:57:02.954Z,20.52
2018-12-29T15:59:31.677Z,23.40
2018-12-29T16:02:00.173Z,23.55
2018-12-29T16:04:28.629Z,17.12
2018-12-29T16:06:57.131Z,20.12
2018-12-29T16:09:26.097Z,25.62
2018-12-29T16:11:54.934Z,25.37
2018-12-29T16:14:23.386Z,21.70
2018-12-29T16:16:52.184Z,24.92
2018-12-29T16:19:20.696Z,25.45
2018-12-29T16:21:50.241Z,31.57
2018-12-29T16:24:19.158Z,21.68
2018-12-29T16:26:47.946Z,24.10
2018-12-29T16:29:16.724Z,34.73
2018-12-29T16:31:45.230Z,22.67
2018-12-29T16:34:14.124Z,21.25
2018-12-29T16:36:42.828Z,26.48
2018-12-29T16:39:11.295Z,26.97
2018-12-29T16:41:39.740Z,28.42
2018-12-29T16:44:08.170Z,23.75
2018-12-29T16:46:36.786Z,27.73
2018-12-29T16:49:06.970Z,23.10
2018-12-29T16:51:35.452Z,25.45
2018-12-29T16:54:03.886Z,27.05
2018-12-29T16:56:32.499Z,27.07
2018-12-29T16:59:01.017Z,31.80
2018-12-29T17:01:30.274Z,24.35
2018-12-29T17:03:58.891Z,26.52
2018-12-29T17:06:29.056Z,26.77
2018-12-29T17:08:57.558Z,27.22
2018-12-29T17:11:26.075Z,35.15
2018-12-29T17:13:54.511Z,32.48
2018-12-29T17:16:23.019Z,23.60
2018-12-29T17:18:51.451Z,23.52
2018-12-29T17:21:19.963Z,27.93
2018-12-29T17:23:48.663Z,22.87
2018-12-29T17:26:17.371Z,28.92
2018-12-29T17:28:45.834Z,27.05
2018-12-29T17:31:14.547Z,26.17
2018-12-29T17:33:44.035Z,26.27
2018-12-29T17:36:12.552Z,24.02
2018-12-29T17:38:40.970Z,28.23
2018-12-29T17:41:11.300Z,29.67
2018-12-29T17:43:39.811Z,31.30
2018-12-29T17:46:08.314Z,29.18
2018-12-29T17:48:36.829Z,26.27
2018-12-29T17:51:05.518Z,30.02
2018-12-29T17:53:34.408Z,26.05
2018-12-29T17:56:02.848Z,25.37
2018-12-29T17:58:31.350Z,28.15
2018-12-29T18:00:59.858Z,27.37
2018-12-29T18:03:28.286Z,23.65
2018-12-29T18:05:56.969Z,33.75
2018-12-29T18:08:25.483Z,39.65
2018-12-29T18:10:53.983Z,33.25
2018-12-29T18:13:22.701Z,38.38
2018-12-29T18:15:51.205Z,38.40
2018-12-29T18:18:19.718Z,34.73
2018-12-29T18:20:48.281Z,33.35
2018-12-29T18:23:16.772Z,30.70
2018-12-29T18:25:45.283Z,28.62
2018-12-29T18:28:15.224Z,27.40
2018-12-29T18:30:43.723Z,30.90
2018-12-29T18:33:12.557Z,25.75
2018-12-29T18:35:40.975Z,30.27
2018-12-29T18:38:09.409Z,26.27
2018-12-29T18:40:37.843Z,27.85
2018-12-29T18:43:06.369Z,24.37
2018-12-29T18:45:35.367Z,26.15
2018-12-29T18:48:04.232Z,31.27
2018-12-29T18:50:32.741Z,30.02
2018-12-29T18:53:01.180Z,30.32
2018-12-29T18:55:29.682Z,30.97
2018-12-29T18:57:58.199Z,20.37
2018-12-29T19:00:27.099Z,24.80
2018-12-29T19:02:55.552Z,20.60
2018-12-29T19:05:23.999Z,32.67
2018-12-29T19:07:52.510Z,23.70
2018-12-29T19:10:20.936Z,42.65
2018-12-29T19:12:49.371Z,64.67
2018-12-29T19:15:18.080Z,49.05
2018-12-29T19:17:46.886Z,27.25
2018-12-29T19:20:15.803Z,27.82
2018-12-29T19:22:44.288Z,23.85
2018-12-29T19:25:12.774Z,28.62
2018-12-29T19:27:41.285Z,34.30
2018-12-29T19:30:09.799Z,25.65
2018-12-29T19:32:38.233Z,28.47
2018-12-29T19:35:06.998Z,29.57
2018-12-29T19:37:35.510Z,24.20
2018-12-29T19:40:05.704Z,23.75
2018-12-29T19:42:34.484Z,29.98
2018-12-29T19:45:03.208Z,26.77
2018-12-29T19:47:31.897Z,29.90
2018-12-29T19:50:00.850Z,27.35
2018-12-29T19:52:29.354Z,26.57
2018-12-29T19:54:57.790Z,24.18
2018-12-29T19:57:26.911Z,24.05
2018-12-29T19:59:55.390Z,24.77
2018-12-29T20:02:24.211Z,25.23
2018-12-29T20:04:52.926Z,24.87
2018-12-29T20:07:21.741Z,28.40
2018-12-29T20:09:50.271Z,26.10
2018-12-29T20:12:18.698Z,25.15
2018-12-29T20:14:47.241Z,31.48
2018-12-29T20:17:15.974Z,31.07
2018-12-29T20:19:44.620Z,30.70
2018-12-29T20:22:13.112Z,31.17
2018-12-29T20:24:41.635Z,30.35
2018-12-29T20:27:10.135Z,32.40
2018-12-29T20:29:38.578Z,29.57
2018-12-29T20:32:07.009Z,29.77
2018-12-29T20:34:36.065Z,31.40
2018-12-29T20:37:04.644Z,35.00
2018-12-29T20:39:33.154Z,37.93
2018-12-29T20:42:01.592Z,32.58
2018-12-29T20:44:30.098Z,39.65
2018-12-29T20:46:58.944Z,32.53
2018-12-29T20:49:29.497Z,38.95
2018-12-29T20:51:58.137Z,34.90
2018-12-29T20:54:26.639Z,41.88
2018-12-29T20:56:55.348Z,36.75
2018-12-29T20:59:23.862Z,40.28
2018-12-29T21:01:52.597Z,33.15
2018-12-29T21:04:21.063Z,38.08
2018-12-29T21:06:49.752Z,42.50
2018-12-29T21:09:18.218Z,39.67
2018-12-29T21:11:46.653Z,31.45
2018-12-29T21:14:15.454Z,42.38
2018-12-29T21:16:44.110Z,34.75
2018-12-29T21:19:12.571Z,30.35
2018-12-29T21:21:41.091Z,38.08
2018-12-29T21:24:12.431Z,31.68
2018-12-29T21:26:39.678Z,34.73
2018-12-29T21:29:08.330Z,31.93
2018-12-29T21:31:37.014Z,38.90
2018-12-29T21:34:05.511Z,37.23
2018-12-29T21:36:34.006Z,32.73
2018-12-29T21:39:02.598Z,40.83
2018-12-29T21:41:31.460Z,36.95
2018-12-29T21:43:59.883Z,36.40
2018-12-29T21:46:28.384Z,33.98
2018-12-29T21:48:56.813Z,33.88
2018-12-29T21:51:25.246Z,35.70
2018-12-29T21:53:53.741Z,37.38
2018-12-29T21:56:22.690Z,36.60
2018-12-29T21:58:51.126Z,35.17
2018-12-29T22:01:19.550Z,38.48
2018-12-29T22:03:48.067Z,37.30
2018-12-29T22:06:16.501Z,33.95
2018-12-29T22:08:45.014Z,34.65
2018-12-29T22:11:13.438Z,34.60
2018-12-29T22:13:41.873Z,39.18
2018-12-29T22:16:10.539Z,32.25
2018-12-29T22:18:39.049Z,39.23
2018-12-29T22:21:07.687Z,35.03
2018-12-29T22:23:36.333Z,34.55
2018-12-29T22:26:04.803Z,32.83
2018-12-29T22:28:33.460Z,30.55
2018-12-29T22:31:01.921Z,39.08
2018-12-29T22:33:30.359Z,41.90
2018-12-29T22:35:58.788Z,38.13
2018-12-29T22:38:27.441Z,33.28
2018-12-29T22:40:55.902Z,38.13
2018-12-29T22:43:24.342Z,30.10
2018-12-29T22:45:53.032Z,28.12
2018-12-29T22:48:21.773Z,34.38
2018-12-29T22:50:50.381Z,29.20
2018-12-29T22:53:19.146Z,38.92
2018-12-29T22:55:47.622Z,38.30
2018-12-29T22:58:16.037Z,32.33
2018-12-29T23:00:46.823Z,35.43
2018-12-29T23:03:16.200Z,30.43
2018-12-29T23:05:44.947Z,29.35
2018-12-29T23:08:13.578Z,35.35
2018-12-29T23:10:42.094Z,39.18
2018-12-29T23:13:10.518Z,35.70
2018-12-29T23:15:39.030Z,36.48
2018-12-29T23:18:07.453Z,39.70
2018-12-29T23:20:36.162Z,30.32
2018-12-29T23:23:04.684Z,40.60
2018-12-29T23:25:33.172Z,51.20
2018-12-29T23:28:01.593Z,33.30
2018-12-29T23:30:30.034Z,38.30
2018-12-29T23:32:58.532Z,39.80
2018-12-29T23:35:27.174Z,36.17
2018-12-29T23:37:56.013Z,39.38
2018-12-29T23:40:24.523Z,48.73
2018-12-29T23:42:53.018Z,35.65
2018-12-29T23:45:21.531Z,38.25
2018-12-29T23:47:50.248Z,34.27
2018-12-29T23:50:18.714Z,39.98
2018-12-29T23:52:47.431Z,42.00
2018-12-29T23:55:16.030Z,34.75
2018-12-29T23:57:44.465Z,36.85
